sensor_id;sensor_type;location;lat;lon;timestamp;P1;durP1;ratioP1;P2;durP2;ratioP2
3141;SDS011;1581;51.568;6.998;2023-07-13T00:00:00;3.93;;;1.83;;
3141;SDS011;1581;51.568;6.998;2023-07-13T00:02:34;4.83;;;1.47;;
3141;SDS011;1581;51.568;6.998;2023-07-13T00:05:02;4.57;;;1.93;;
3141;SDS011;1581;51.568;6.998;2023-07-13T00:07:31;6.37;;;1.80;;
3141;SDS011;1581;51.568;6.998;2023-07-13T00:09:59;2.90;;;1.40;;
3141;SDS011;1581;51.568;6.998;2023-07-13T00:12:28;6.07;;;1.67;;
3141;SDS011;1581;51.568;6.998;2023-07-13T00:14:59;3.13;;;1.80;;
3141;SDS011;1581;51.568;6.998;2023-07-13T00:17:30;5.30;;;1.50;;
3141;SDS011;1581;51.568;6.998;2023-07-13T00:19:59;6.27;;;1.57;;
3141;SDS011;1581;51.568;6.998;2023-07-13T00:22:29;9.10;;;1.27;;
3141;SDS011;1581;51.568;6.998;2023-07-13T00:24:57;8.20;;;2.00;;
3141;SDS011;1581;51.568;6.998;2023-07-13T00:27:24;3.70;;;1.37;;
3141;SDS011;1581;51.568;6.998;2023-07-13T00:29:56;10.00;;;1.97;;
3141;SDS011;1581;51.568;6.998;2023-07-13T00:32:25;8.27;;;2.40;;
3141;SDS011;1581;51.568;6.998;2023-07-13T00:34:53;3.17;;;1.57;;
3141;SDS011;1581;51.568;6.998;2023-07-13T00:37:25;7.20;;;2.03;;
3141;SDS011;1581;51.568;6.998;2023-07-13T00:39:56;7.20;;;1.90;;
3141;SDS011;1581;51.568;6.998;2023-07-13T00:42:25;3.10;;;1.60;;
3141;SDS011;1581;51.568;6.998;2023-07-13T00:45:04;3.33;;;1.50;;
3141;SDS011;1581;51.568;6.998;2023-07-13T00:47:55;3.03;;;1.40;;
3141;SDS011;1581;51.568;6.998;2023-07-13T00:50:31;9.30;;;2.37;;
3141;SDS011;1581;51.568;6.998;2023-07-13T00:53:01;6.40;;;1.83;;
3141;SDS011;1581;51.568;6.998;2023-07-13T00:55:32;6.27;;;1.90;;
3141;SDS011;1581;51.568;6.998;2023-07-13T00:58:01;6.60;;;1.60;;
3141;SDS011;1581;51.568;6.998;2023-07-13T01:00:40;9.90;;;1.60;;
3141;SDS011;1581;51.568;6.998;2023-07-13T01:03:12;4.90;;;1.97;;
3141;SDS011;1581;51.568;6.998;2023-07-13T01:05:40;4.00;;;1.70;;
3141;SDS011;1581;51.568;6.998;2023-07-13T01:08:09;3.13;;;1.30;;
3141;SDS011;1581;51.568;6.998;2023-07-13T01:10:38;11.73;;;1.77;;
3141;SDS011;1581;51.568;6.998;2023-07-13T01:13:08;7.00;;;1.37;;
3141;SDS011;1581;51.568;6.998;2023-07-13T01:15:38;7.47;;;3.60;;
3141;SDS011;1581;51.568;6.998;2023-07-13T01:18:09;2.73;;;1.60;;
3141;SDS011;1581;51.568;6.998;2023-07-13T01:20:40;8.33;;;1.80;;
3141;SDS011;1581;51.568;6.998;2023-07-13T01:23:15;5.07;;;1.80;;
3141;SDS011;1581;51.568;6.998;2023-07-13T01:25:44;10.00;;;1.97;;
3141;SDS011;1581;51.568;6.998;2023-07-13T01:28:12;3.03;;;1.57;;
3141;SDS011;1581;51.568;6.998;2023-07-13T01:30:42;3.47;;;1.80;;
3141;SDS011;1581;51.568;6.998;2023-07-13T01:33:12;12.03;;;1.80;;
3141;SDS011;1581;51.568;6.998;2023-07-13T01:35:41;6.23;;;1.67;;
3141;SDS011;1581;51.568;6.998;2023-07-13T01:38:11;9.50;;;1.97;;
3141;SDS011;1581;51.568;6.998;2023-07-13T01:40:41;6.83;;;2.13;;
3141;SDS011;1581;51.568;6.998;2023-07-13T01:43:09;8.43;;;1.87;;
3141;SDS011;1581;51.568;6.998;2023-07-13T01:45:37;9.63;;;2.40;;
3141;SDS011;1581;51.568;6.998;2023-07-13T01:48:05;3.43;;;1.63;;
3141;SDS011;1581;51.568;6.998;2023-07-13T01:50:35;7.63;;;2.20;;
3141;SDS011;1581;51.568;6.998;2023-07-13T01:53:03;7.07;;;2.43;;
3141;SDS011;1581;51.568;6.998;2023-07-13T01:55:33;3.87;;;1.97;;
3141;SDS011;1581;51.568;6.998;2023-07-13T01:58:02;8.77;;;2.00;;
3141;SDS011;1581;51.568;6.998;2023-07-13T02:00:31;12.43;;;2.63;;
3141;SDS011;1581;51.568;6.998;2023-07-13T02:03:00;7.47;;;1.90;;
3141;SDS011;1581;51.568;6.998;2023-07-13T02:05:28;4.10;;;1.57;;
3141;SDS011;1581;51.568;6.998;2023-07-13T02:07:57;8.93;;;2.00;;
3141;SDS011;1581;51.568;6.998;2023-07-13T02:10:32;7.77;;;1.57;;
3141;SDS011;1581;51.568;6.998;2023-07-13T02:13:01;4.77;;;1.60;;
3141;SDS011;1581;51.568;6.998;2023-07-13T02:15:31;6.40;;;1.70;;
3141;SDS011;1581;51.568;6.998;2023-07-13T02:17:59;12.17;;;1.80;;
3141;SDS011;1581;51.568;6.998;2023-07-13T02:20:35;4.20;;;1.57;;
3141;SDS011;1581;51.568;6.998;2023-07-13T02:23:03;3.40;;;1.57;;
3141;SDS011;1581;51.568;6.998;2023-07-13T02:25:30;3.20;;;1.57;;
3141;SDS011;1581;51.568;6.998;2023-07-13T02:28:01;4.67;;;1.40;;
3141;SDS011;1581;51.568;6.998;2023-07-13T02:30:30;8.20;;;1.73;;
3141;SDS011;1581;51.568;6.998;2023-07-13T02:32:58;6.33;;;1.53;;
3141;SDS011;1581;51.568;6.998;2023-07-13T02:35:26;11.40;;;1.50;;
3141;SDS011;1581;51.568;6.998;2023-07-13T02:37:53;7.87;;;1.77;;
3141;SDS011;1581;51.568;6.998;2023-07-13T02:40:22;5.50;;;1.80;;
3141;SDS011;1581;51.568;6.998;2023-07-13T02:42:51;12.30;;;4.00;;
3141;SDS011;1581;51.568;6.998;2023-07-13T02:45:22;3.87;;;2.00;;
3141;SDS011;1581;51.568;6.998;2023-07-13T02:47:49;4.97;;;1.63;;
3141;SDS011;1581;51.568;6.998;2023-07-13T02:50:17;8.40;;;1.70;;
3141;SDS011;1581;51.568;6.998;2023-07-13T02:52:46;12.83;;;1.67;;
3141;SDS011;1581;51.568;6.998;2023-07-13T02:55:44;6.70;;;2.20;;
3141;SDS011;1581;51.568;6.998;2023-07-13T02:58:14;10.30;;;2.27;;
3141;SDS011;1581;51.568;6.998;2023-07-13T03:00:44;4.90;;;1.40;;
3141;SDS011;1581;51.568;6.998;2023-07-13T03:03:15;6.23;;;2.37;;
3141;SDS011;1581;51.568;6.998;2023-07-13T03:05:44;6.27;;;1.40;;
3141;SDS011;1581;51.568;6.998;2023-07-13T03:08:15;8.67;;;1.87;;
3141;SDS011;1581;51.568;6.998;2023-07-13T03:10:48;5.17;;;1.97;;
3141;SDS011;1581;51.568;6.998;2023-07-13T03:13:29;6.50;;;1.87;;
3141;SDS011;1581;51.568;6.998;2023-07-13T03:15:58;10.90;;;1.73;;
3141;SDS011;1581;51.568;6.998;2023-07-13T03:18:27;4.33;;;1.50;;
3141;SDS011;1581;51.568;6.998;2023-07-13T03:20:57;4.57;;;1.60;;
3141;SDS011;1581;51.568;6.998;2023-07-13T03:23:26;9.57;;;1.83;;
3141;SDS011;1581;51.568;6.998;2023-07-13T03:26:01;9.93;;;1.90;;
3141;SDS011;1581;51.568;6.998;2023-07-13T03:28:36;6.23;;;1.70;;
3141;SDS011;1581;51.568;6.998;2023-07-13T03:31:12;4.73;;;1.67;;
3141;SDS011;1581;51.568;6.998;2023-07-13T03:33:45;3.67;;;1.70;;
3141;SDS011;1581;51.568;6.998;2023-07-13T03:36:15;6.50;;;1.60;;
3141;SDS011;1581;51.568;6.998;2023-07-13T03:38:47;4.27;;;1.43;;
3141;SDS011;1581;51.568;6.998;2023-07-13T03:41:19;4.43;;;1.67;;
3141;SDS011;1581;51.568;6.998;2023-07-13T03:43:52;3.03;;;1.43;;
3141;SDS011;1581;51.568;6.998;2023-07-13T03:46:22;5.07;;;1.37;;
3141;SDS011;1581;51.568;6.998;2023-07-13T03:48:53;6.40;;;1.50;;
3141;SDS011;1581;51.568;6.998;2023-07-13T03:51:24;9.93;;;1.90;;
3141;SDS011;1581;51.568;6.998;2023-07-13T03:54:03;4.53;;;1.40;;
3141;SDS011;1581;51.568;6.998;2023-07-13T03:56:38;3.77;;;1.67;;
3141;SDS011;1581;51.568;6.998;2023-07-13T03:59:11;4.57;;;1.50;;
3141;SDS011;1581;51.568;6.998;2023-07-13T04:01:44;4.07;;;1.63;;
3141;SDS011;1581;51.568;6.998;2023-07-13T04:04:19;4.53;;;1.77;;
3141;SDS011;1581;51.568;6.998;2023-07-13T04:06:48;7.90;;;1.97;;
3141;SDS011;1581;51.568;6.998;2023-07-13T04:09:20;11.23;;;1.90;;
3141;SDS011;1581;51.568;6.998;2023-07-13T04:11:49;2.93;;;1.63;;
3141;SDS011;1581;51.568;6.998;2023-07-13T04:14:23;4.93;;;1.53;;
3141;SDS011;1581;51.568;6.998;2023-07-13T04:16:53;11.60;;;3.10;;
3141;SDS011;1581;51.568;6.998;2023-07-13T04:19:27;4.53;;;1.83;;
3141;SDS011;1581;51.568;6.998;2023-07-13T04:21:56;5.13;;;1.97;;
3141;SDS011;1581;51.568;6.998;2023-07-13T04:27:35;5.13;;;2.30;;
3141;SDS011;1581;51.568;6.998;2023-07-13T04:30:07;6.23;;;1.43;;
3141;SDS011;1581;51.568;6.998;2023-07-13T04:32:42;8.67;;;2.10;;
3141;SDS011;1581;51.568;6.998;2023-07-13T04:35:24;3.03;;;1.50;;
3141;SDS011;1581;51.568;6.998;2023-07-13T04:37:54;8.83;;;2.30;;
3141;SDS011;1581;51.568;6.998;2023-07-13T04:40:25;4.10;;;2.20;;
3141;SDS011;1581;51.568;6.998;2023-07-13T04:42:57;8.43;;;2.20;;
3141;SDS011;1581;51.568;6.998;2023-07-13T04:45:34;6.17;;;1.50;;
3141;SDS011;1581;51.568;6.998;2023-07-13T04:48:09;3.67;;;1.53;;
3141;SDS011;1581;51.568;6.998;2023-07-13T04:50:38;10.47;;;1.70;;
3141;SDS011;1581;51.568;6.998;2023-07-13T04:53:09;5.73;;;1.80;;
3141;SDS011;1581;51.568;6.998;2023-07-13T04:55:40;5.03;;;1.60;;
3141;SDS011;1581;51.568;6.998;2023-07-13T04:58:20;6.27;;;1.67;;
3141;SDS011;1581;51.568;6.998;2023-07-13T05:00:55;17.17;;;2.20;;
3141;SDS011;1581;51.568;6.998;2023-07-13T05:03:32;5.40;;;3.17;;
3141;SDS011;1581;51.568;6.998;2023-07-13T05:06:03;9.50;;;1.90;;
3141;SDS011;1581;51.568;6.998;2023-07-13T05:08:35;15.43;;;2.23;;
3141;SDS011;1581;51.568;6.998;2023-07-13T05:11:10;9.03;;;2.07;;
3141;SDS011;1581;51.568;6.998;2023-07-13T05:13:40;7.77;;;1.80;;
3141;SDS011;1581;51.568;6.998;2023-07-13T05:16:13;6.87;;;2.00;;
3141;SDS011;1581;51.568;6.998;2023-07-13T05:18:43;8.80;;;1.87;;
3141;SDS011;1581;51.568;6.998;2023-07-13T05:21:12;13.07;;;2.50;;
3141;SDS011;1581;51.568;6.998;2023-07-13T05:23:40;16.97;;;2.60;;
3141;SDS011;1581;51.568;6.998;2023-07-13T05:26:10;5.80;;;2.07;;
3141;SDS011;1581;51.568;6.998;2023-07-13T05:28:44;7.23;;;2.50;;
3141;SDS011;1581;51.568;6.998;2023-07-13T05:31:14;8.60;;;3.53;;
3141;SDS011;1581;51.568;6.998;2023-07-13T05:33:43;8.80;;;2.67;;
3141;SDS011;1581;51.568;6.998;2023-07-13T05:36:14;10.40;;;2.47;;
3141;SDS011;1581;51.568;6.998;2023-07-13T05:38:43;9.67;;;2.27;;
3141;SDS011;1581;51.568;6.998;2023-07-13T05:41:12;12.97;;;2.67;;
3141;SDS011;1581;51.568;6.998;2023-07-13T05:43:41;11.30;;;2.77;;
3141;SDS011;1581;51.568;6.998;2023-07-13T05:46:11;11.20;;;3.20;;
3141;SDS011;1581;51.568;6.998;2023-07-13T05:48:41;16.80;;;2.80;;
3141;SDS011;1581;51.568;6.998;2023-07-13T05:51:10;12.30;;;3.50;;
3141;SDS011;1581;51.568;6.998;2023-07-13T05:53:39;8.57;;;2.47;;
3141;SDS011;1581;51.568;6.998;2023-07-13T05:56:11;9.93;;;2.63;;
3141;SDS011;1581;51.568;6.998;2023-07-13T05:58:39;9.60;;;2.43;;
3141;SDS011;1581;51.568;6.998;2023-07-13T06:01:09;8.40;;;2.90;;
3141;SDS011;1581;51.568;6.998;2023-07-13T06:03:44;13.40;;;3.70;;
3141;SDS011;1581;51.568;6.998;2023-07-13T06:06:11;15.47;;;3.23;;
3141;SDS011;1581;51.568;6.998;2023-07-13T06:08:40;6.70;;;2.70;;
3141;SDS011;1581;51.568;6.998;2023-07-13T06:11:09;11.43;;;3.37;;
3141;SDS011;1581;51.568;6.998;2023-07-13T06:13:40;12.07;;;2.93;;
3141;SDS011;1581;51.568;6.998;2023-07-13T06:16:09;11.90;;;3.33;;
3141;SDS011;1581;51.568;6.998;2023-07-13T06:18:41;14.20;;;3.10;;
3141;SDS011;1581;51.568;6.998;2023-07-13T06:21:31;13.70;;;3.47;;
3141;SDS011;1581;51.568;6.998;2023-07-13T06:24:14;9.73;;;2.97;;
3141;SDS011;1581;51.568;6.998;2023-07-13T06:26:52;11.43;;;3.23;;
3141;SDS011;1581;51.568;6.998;2023-07-13T06:29:20;14.80;;;4.20;;
3141;SDS011;1581;51.568;6.998;2023-07-13T06:31:58;13.50;;;3.60;;
3141;SDS011;1581;51.568;6.998;2023-07-13T06:34:30;8.87;;;3.63;;
3141;SDS011;1581;51.568;6.998;2023-07-13T06:37:01;20.40;;;3.33;;
3141;SDS011;1581;51.568;6.998;2023-07-13T06:39:29;17.47;;;3.90;;
3141;SDS011;1581;51.568;6.998;2023-07-13T06:41:57;9.87;;;4.03;;
3141;SDS011;1581;51.568;6.998;2023-07-13T06:44:25;15.13;;;4.07;;
3141;SDS011;1581;51.568;6.998;2023-07-13T06:46:53;11.63;;;4.30;;
3141;SDS011;1581;51.568;6.998;2023-07-13T06:49:22;16.80;;;4.17;;
3141;SDS011;1581;51.568;6.998;2023-07-13T06:52:02;10.30;;;3.00;;
3141;SDS011;1581;51.568;6.998;2023-07-13T06:54:30;11.90;;;3.30;;
3141;SDS011;1581;51.568;6.998;2023-07-13T06:57:00;11.47;;;2.90;;
3141;SDS011;1581;51.568;6.998;2023-07-13T06:59:28;12.60;;;3.40;;
3141;SDS011;1581;51.568;6.998;2023-07-13T07:01:57;10.43;;;3.87;;
3141;SDS011;1581;51.568;6.998;2023-07-13T07:04:27;12.77;;;5.63;;
3141;SDS011;1581;51.568;6.998;2023-07-13T07:06:57;11.93;;;4.43;;
3141;SDS011;1581;51.568;6.998;2023-07-13T07:09:27;8.67;;;5.60;;
3141;SDS011;1581;51.568;6.998;2023-07-13T07:11:56;11.50;;;4.60;;
3141;SDS011;1581;51.568;6.998;2023-07-13T07:14:24;15.80;;;4.83;;
3141;SDS011;1581;51.568;6.998;2023-07-13T07:16:52;14.33;;;4.70;;
3141;SDS011;1581;51.568;6.998;2023-07-13T07:19:20;10.60;;;4.60;;
3141;SDS011;1581;51.568;6.998;2023-07-13T07:21:51;14.30;;;3.93;;
3141;SDS011;1581;51.568;6.998;2023-07-13T07:24:19;11.75;;;3.63;;
3141;SDS011;1581;51.568;6.998;2023-07-13T07:26:48;11.40;;;3.00;;
3141;SDS011;1581;51.568;6.998;2023-07-13T07:29:16;10.20;;;3.50;;
3141;SDS011;1581;51.568;6.998;2023-07-13T07:31:53;10.02;;;4.30;;
3141;SDS011;1581;51.568;6.998;2023-07-13T07:34:30;12.90;;;3.97;;
3141;SDS011;1581;51.568;6.998;2023-07-13T07:37:05;10.90;;;3.53;;
3141;SDS011;1581;51.568;6.998;2023-07-13T07:39:36;10.65;;;2.97;;
3141;SDS011;1581;51.568;6.998;2023-07-13T07:42:07;8.70;;;3.85;;
3141;SDS011;1581;51.568;6.998;2023-07-13T07:44:45;10.40;;;3.80;;
3141;SDS011;1581;51.568;6.998;2023-07-13T07:47:15;6.75;;;3.20;;
3141;SDS011;1581;51.568;6.998;2023-07-13T07:49:55;13.55;;;3.67;;
3141;SDS011;1581;51.568;6.998;2023-07-13T07:52:25;8.00;;;3.90;;
3141;SDS011;1581;51.568;6.998;2023-07-13T07:54:54;7.80;;;3.30;;
3141;SDS011;1581;51.568;6.998;2023-07-13T07:57:44;15.85;;;3.55;;
3141;SDS011;1581;51.568;6.998;2023-07-13T08:00:12;8.70;;;3.88;;
3141;SDS011;1581;51.568;6.998;2023-07-13T08:02:43;5.03;;;3.38;;
3141;SDS011;1581;51.568;6.998;2023-07-13T08:05:11;9.60;;;3.05;;
3141;SDS011;1581;51.568;6.998;2023-07-13T08:07:40;6.95;;;2.58;;
3141;SDS011;1581;51.568;6.998;2023-07-13T08:12:44;11.88;;;3.30;;
3141;SDS011;1581;51.568;6.998;2023-07-13T08:15:13;11.63;;;3.30;;
3141;SDS011;1581;51.568;6.998;2023-07-13T08:17:45;7.22;;;3.30;;
3141;SDS011;1581;51.568;6.998;2023-07-13T08:20:14;12.07;;;3.13;;
3141;SDS011;1581;51.568;6.998;2023-07-13T08:22:43;10.68;;;2.80;;
3141;SDS011;1581;51.568;6.998;2023-07-13T08:25:11;9.02;;;3.92;;
3141;SDS011;1581;51.568;6.998;2023-07-13T08:27:39;17.83;;;3.13;;
3141;SDS011;1581;51.568;6.998;2023-07-13T08:30:09;13.25;;;4.18;;
3141;SDS011;1581;51.568;6.998;2023-07-13T08:32:37;11.48;;;3.80;;
3141;SDS011;1581;51.568;6.998;2023-07-13T08:35:05;18.85;;;3.90;;
3141;SDS011;1581;51.568;6.998;2023-07-13T08:37:34;9.10;;;4.20;;
3141;SDS011;1581;51.568;6.998;2023-07-13T08:40:02;9.73;;;3.40;;
3141;SDS011;1581;51.568;6.998;2023-07-13T08:42:33;14.90;;;2.80;;
3141;SDS011;1581;51.568;6.998;2023-07-13T08:45:07;9.68;;;3.72;;
3141;SDS011;1581;51.568;6.998;2023-07-13T08:47:47;12.52;;;4.82;;
3141;SDS011;1581;51.568;6.998;2023-07-13T08:50:22;11.80;;;3.22;;
3141;SDS011;1581;51.568;6.998;2023-07-13T08:52:54;8.63;;;3.42;;
3141;SDS011;1581;51.568;6.998;2023-07-13T08:55:25;7.28;;;2.72;;
3141;SDS011;1581;51.568;6.998;2023-07-13T08:58:00;5.63;;;2.80;;
3141;SDS011;1581;51.568;6.998;2023-07-13T09:00:40;10.50;;;3.85;;
3141;SDS011;1581;51.568;6.998;2023-07-13T09:03:20;7.60;;;2.72;;
3141;SDS011;1581;51.568;6.998;2023-07-13T09:09:38;8.45;;;3.40;;
3141;SDS011;1581;51.568;6.998;2023-07-13T09:12:24;8.70;;;2.80;;
3141;SDS011;1581;51.568;6.998;2023-07-13T09:15:02;7.65;;;2.95;;
3141;SDS011;1581;51.568;6.998;2023-07-13T09:17:41;9.75;;;2.78;;
3141;SDS011;1581;51.568;6.998;2023-07-13T09:20:17;10.05;;;2.83;;
3141;SDS011;1581;51.568;6.998;2023-07-13T09:22:55;9.55;;;2.88;;
3141;SDS011;1581;51.568;6.998;2023-07-13T09:25:29;14.18;;;3.58;;
3141;SDS011;1581;51.568;6.998;2023-07-13T09:27:59;7.28;;;3.08;;
3141;SDS011;1581;51.568;6.998;2023-07-13T09:30:37;6.72;;;3.15;;
3141;SDS011;1581;51.568;6.998;2023-07-13T09:33:11;7.55;;;2.95;;
3141;SDS011;1581;51.568;6.998;2023-07-13T09:35:39;8.63;;;3.28;;
3141;SDS011;1581;51.568;6.998;2023-07-13T09:38:11;6.30;;;2.22;;
3141;SDS011;1581;51.568;6.998;2023-07-13T09:40:49;6.45;;;2.58;;
3141;SDS011;1581;51.568;6.998;2023-07-13T09:43:34;6.10;;;2.28;;
3141;SDS011;1581;51.568;6.998;2023-07-13T09:46:02;4.53;;;2.28;;
3141;SDS011;1581;51.568;6.998;2023-07-13T09:48:33;8.02;;;2.85;;
3141;SDS011;1581;51.568;6.998;2023-07-13T09:51:07;14.25;;;2.80;;
3141;SDS011;1581;51.568;6.998;2023-07-13T09:53:42;7.47;;;2.90;;
3141;SDS011;1581;51.568;6.998;2023-07-13T09:56:20;6.05;;;2.33;;
3141;SDS011;1581;51.568;6.998;2023-07-13T09:58:50;13.52;;;4.45;;
3141;SDS011;1581;51.568;6.998;2023-07-13T10:01:21;4.93;;;2.85;;
3141;SDS011;1581;51.568;6.998;2023-07-13T10:04:01;8.57;;;2.80;;
3141;SDS011;1581;51.568;6.998;2023-07-13T10:06:38;8.73;;;2.50;;
3141;SDS011;1581;51.568;6.998;2023-07-13T10:09:08;7.78;;;2.70;;
3141;SDS011;1581;51.568;6.998;2023-07-13T10:11:41;5.35;;;2.50;;
3141;SDS011;1581;51.568;6.998;2023-07-13T10:14:10;6.57;;;2.67;;
3141;SDS011;1581;51.568;6.998;2023-07-13T10:16:44;3.22;;;2.70;;
3141;SDS011;1581;51.568;6.998;2023-07-13T10:19:15;6.15;;;2.70;;
3141;SDS011;1581;51.568;6.998;2023-07-13T10:21:54;5.20;;;2.33;;
3141;SDS011;1581;51.568;6.998;2023-07-13T10:24:25;7.97;;;2.90;;
3141;SDS011;1581;51.568;6.998;2023-07-13T10:27:03;7.78;;;2.60;;
3141;SDS011;1581;51.568;6.998;2023-07-13T10:29:44;4.15;;;2.90;;
3141;SDS011;1581;51.568;6.998;2023-07-13T10:32:22;6.55;;;2.83;;
3141;SDS011;1581;51.568;6.998;2023-07-13T10:34:51;8.50;;;3.33;;
3141;SDS011;1581;51.568;6.998;2023-07-13T10:37:22;4.53;;;2.28;;
3141;SDS011;1581;51.568;6.998;2023-07-13T10:39:54;10.98;;;2.22;;
3141;SDS011;1581;51.568;6.998;2023-07-13T10:42:27;9.75;;;3.05;;
3141;SDS011;1581;51.568;6.998;2023-07-13T10:44:59;6.68;;;2.50;;
3141;SDS011;1581;51.568;6.998;2023-07-13T10:47:27;5.03;;;1.92;;
3141;SDS011;1581;51.568;6.998;2023-07-13T10:49:57;5.88;;;2.25;;
3141;SDS011;1581;51.568;6.998;2023-07-13T10:52:40;4.47;;;2.35;;
3141;SDS011;1581;51.568;6.998;2023-07-13T10:55:35;4.57;;;1.73;;
3141;SDS011;1581;51.568;6.998;2023-07-13T10:58:15;6.25;;;2.47;;
3141;SDS011;1581;51.568;6.998;2023-07-13T11:00:49;3.25;;;1.80;;
3141;SDS011;1581;51.568;6.998;2023-07-13T11:03:25;7.18;;;2.13;;
3141;SDS011;1581;51.568;6.998;2023-07-13T11:06:05;4.68;;;1.88;;
3141;SDS011;1581;51.568;6.998;2023-07-13T11:08:51;8.43;;;2.58;;
3141;SDS011;1581;51.568;6.998;2023-07-13T11:11:35;4.90;;;2.00;;
3141;SDS011;1581;51.568;6.998;2023-07-13T11:14:14;4.90;;;1.92;;
3141;SDS011;1581;51.568;6.998;2023-07-13T11:16:57;6.85;;;2.13;;
3141;SDS011;1581;51.568;6.998;2023-07-13T11:19:39;5.28;;;2.20;;
3141;SDS011;1581;51.568;6.998;2023-07-13T11:22:13;6.80;;;2.30;;
3141;SDS011;1581;51.568;6.998;2023-07-13T11:24:59;3.35;;;2.05;;
3141;SDS011;1581;51.568;6.998;2023-07-13T11:27:35;3.80;;;2.00;;
3141;SDS011;1581;51.568;6.998;2023-07-13T11:30:18;5.60;;;1.95;;
3141;SDS011;1581;51.568;6.998;2023-07-13T11:33:15;3.97;;;1.90;;
3141;SDS011;1581;51.568;6.998;2023-07-13T11:35:50;3.17;;;1.60;;
3141;SDS011;1581;51.568;6.998;2023-07-13T11:38:28;4.05;;;1.50;;
3141;SDS011;1581;51.568;6.998;2023-07-13T11:41:04;4.40;;;1.88;;
3141;SDS011;1581;51.568;6.998;2023-07-13T11:43:39;6.68;;;2.25;;
3141;SDS011;1581;51.568;6.998;2023-07-13T11:46:18;1.85;;;1.33;;
3141;SDS011;1581;51.568;6.998;2023-07-13T11:48:49;2.22;;;1.50;;
3141;SDS011;1581;51.568;6.998;2023-07-13T11:51:19;2.38;;;1.65;;
3141;SDS011;1581;51.568;6.998;2023-07-13T11:53:54;2.88;;;1.77;;
3141;SDS011;1581;51.568;6.998;2023-07-13T11:56:23;1.88;;;1.08;;
3141;SDS011;1581;51.568;6.998;2023-07-13T11:58:53;6.22;;;2.00;;
3141;SDS011;1581;51.568;6.998;2023-07-13T12:01:27;2.97;;;1.30;;
3141;SDS011;1581;51.568;6.998;2023-07-13T12:03:59;4.35;;;1.60;;
3141;SDS011;1581;51.568;6.998;2023-07-13T12:06:30;8.80;;;2.20;;
3141;SDS011;1581;51.568;6.998;2023-07-13T12:09:02;6.18;;;1.48;;
3141;SDS011;1581;51.568;6.998;2023-07-13T12:11:41;5.72;;;2.08;;
3141;SDS011;1581;51.568;6.998;2023-07-13T12:14:14;3.58;;;1.48;;
3141;SDS011;1581;51.568;6.998;2023-07-13T12:16:46;5.95;;;1.67;;
3141;SDS011;1581;51.568;6.998;2023-07-13T12:19:17;4.63;;;1.85;;
3141;SDS011;1581;51.568;6.998;2023-07-13T12:21:48;4.78;;;1.60;;
3141;SDS011;1581;51.568;6.998;2023-07-13T12:24:18;4.55;;;1.55;;
3141;SDS011;1581;51.568;6.998;2023-07-13T12:26:50;6.53;;;1.90;;
3141;SDS011;1581;51.568;6.998;2023-07-13T12:29:20;4.90;;;1.63;;
3141;SDS011;1581;51.568;6.998;2023-07-13T12:31:50;8.25;;;1.50;;
3141;SDS011;1581;51.568;6.998;2023-07-13T12:34:19;6.15;;;1.98;;
3141;SDS011;1581;51.568;6.998;2023-07-13T12:36:50;9.93;;;2.70;;
3141;SDS011;1581;51.568;6.998;2023-07-13T12:39:21;2.53;;;1.45;;
3141;SDS011;1581;51.568;6.998;2023-07-13T12:41:52;4.45;;;1.83;;
3141;SDS011;1581;51.568;6.998;2023-07-13T12:44:28;4.90;;;1.60;;
3141;SDS011;1581;51.568;6.998;2023-07-13T12:47:03;2.75;;;1.50;;
3141;SDS011;1581;51.568;6.998;2023-07-13T12:49:39;1.55;;;1.15;;
3141;SDS011;1581;51.568;6.998;2023-07-13T12:52:14;7.32;;;1.45;;
3141;SDS011;1581;51.568;6.998;2023-07-13T12:54:53;3.10;;;1.52;;
3141;SDS011;1581;51.568;6.998;2023-07-13T12:57:23;2.95;;;1.88;;
3141;SDS011;1581;51.568;6.998;2023-07-13T12:59:52;5.18;;;1.52;;
3141;SDS011;1581;51.568;6.998;2023-07-13T13:02:28;3.78;;;1.90;;
3141;SDS011;1581;51.568;6.998;2023-07-13T13:05:00;3.30;;;1.73;;
3141;SDS011;1581;51.568;6.998;2023-07-13T13:07:31;4.97;;;2.20;;
3141;SDS011;1581;51.568;6.998;2023-07-13T13:09:59;2.67;;;1.63;;
3141;SDS011;1581;51.568;6.998;2023-07-13T13:12:27;5.18;;;1.85;;
3141;SDS011;1581;51.568;6.998;2023-07-13T13:14:55;8.32;;;2.65;;
3141;SDS011;1581;51.568;6.998;2023-07-13T13:17:24;5.40;;;2.00;;
3141;SDS011;1581;51.568;6.998;2023-07-13T13:20:12;5.30;;;2.20;;
3141;SDS011;1581;51.568;6.998;2023-07-13T13:23:29;3.83;;;2.20;;
3141;SDS011;1581;51.568;6.998;2023-07-13T13:26:00;3.70;;;2.00;;
3141;SDS011;1581;51.568;6.998;2023-07-13T13:28:49;5.80;;;2.03;;
3141;SDS011;1581;51.568;6.998;2023-07-13T13:31:40;3.60;;;2.55;;
3141;SDS011;1581;51.568;6.998;2023-07-13T13:34:51;11.02;;;1.98;;
3141;SDS011;1581;51.568;6.998;2023-07-13T13:37:37;3.42;;;2.05;;
3141;SDS011;1581;51.568;6.998;2023-07-13T13:40:20;3.95;;;1.98;;
3141;SDS011;1581;51.568;6.998;2023-07-13T13:42:59;5.10;;;2.08;;
3141;SDS011;1581;51.568;6.998;2023-07-13T13:46:22;3.83;;;1.88;;
3141;SDS011;1581;51.568;6.998;2023-07-13T13:49:21;4.15;;;2.08;;
3141;SDS011;1581;51.568;6.998;2023-07-13T13:58:10;4.88;;;1.85;;
3141;SDS011;1581;51.568;6.998;2023-07-13T14:00:41;2.90;;;1.65;;
3141;SDS011;1581;51.568;6.998;2023-07-13T14:03:13;1.95;;;1.70;;
3141;SDS011;1581;51.568;6.998;2023-07-13T14:05:47;4.57;;;2.55;;
3141;SDS011;1581;51.568;6.998;2023-07-13T14:08:18;2.65;;;1.83;;
3141;SDS011;1581;51.568;6.998;2023-07-13T14:10:48;4.43;;;2.10;;
3141;SDS011;1581;51.568;6.998;2023-07-13T14:13:21;4.15;;;2.28;;
3141;SDS011;1581;51.568;6.998;2023-07-13T14:15:56;2.38;;;1.95;;
3141;SDS011;1581;51.568;6.998;2023-07-13T14:18:26;3.10;;;2.20;;
3141;SDS011;1581;51.568;6.998;2023-07-13T14:20:54;4.38;;;2.28;;
3141;SDS011;1581;51.568;6.998;2023-07-13T14:23:23;3.25;;;2.28;;
3141;SDS011;1581;51.568;6.998;2023-07-13T14:25:51;2.58;;;2.38;;
3141;SDS011;1581;51.568;6.998;2023-07-13T14:28:20;3.55;;;2.47;;
3141;SDS011;1581;51.568;6.998;2023-07-13T14:30:50;3.53;;;2.50;;
3141;SDS011;1581;51.568;6.998;2023-07-13T14:33:19;4.07;;;2.65;;
3141;SDS011;1581;51.568;6.998;2023-07-13T14:35:49;3.78;;;2.33;;
3141;SDS011;1581;51.568;6.998;2023-07-13T14:38:18;4.60;;;2.15;;
3141;SDS011;1581;51.568;6.998;2023-07-13T14:40:52;4.18;;;2.20;;
3141;SDS011;1581;51.568;6.998;2023-07-13T14:43:20;4.90;;;2.08;;
3141;SDS011;1581;51.568;6.998;2023-07-13T14:45:50;4.68;;;2.20;;
3141;SDS011;1581;51.568;6.998;2023-07-13T14:48:18;2.95;;;2.58;;
3141;SDS011;1581;51.568;6.998;2023-07-13T14:50:50;6.13;;;2.38;;
3141;SDS011;1581;51.568;6.998;2023-07-13T14:53:21;4.82;;;2.03;;
3141;SDS011;1581;51.568;6.998;2023-07-13T14:55:55;2.55;;;1.02;;
3141;SDS011;1581;51.568;6.998;2023-07-13T14:58:23;5.25;;;1.40;;
3141;SDS011;1581;51.568;6.998;2023-07-13T15:00:51;4.78;;;1.60;;
3141;SDS011;1581;51.568;6.998;2023-07-13T15:03:21;4.15;;;1.85;;
3141;SDS011;1581;51.568;6.998;2023-07-13T15:05:51;3.53;;;1.63;;
3141;SDS011;1581;51.568;6.998;2023-07-13T15:08:19;1.80;;;1.50;;
3141;SDS011;1581;51.568;6.998;2023-07-13T15:10:47;1.77;;;1.30;;
3141;SDS011;1581;51.568;6.998;2023-07-13T15:13:17;2.72;;;1.40;;
3141;SDS011;1581;51.568;6.998;2023-07-13T15:15:47;1.85;;;1.48;;
3141;SDS011;1581;51.568;6.998;2023-07-13T15:18:18;3.88;;;1.58;;
3141;SDS011;1581;51.568;6.998;2023-07-13T15:20:50;4.97;;;1.73;;
3141;SDS011;1581;51.568;6.998;2023-07-13T15:23:21;3.53;;;1.60;;
3141;SDS011;1581;51.568;6.998;2023-07-13T15:25:50;4.40;;;2.22;;
3141;SDS011;1581;51.568;6.998;2023-07-13T15:28:20;3.22;;;1.75;;
3141;SDS011;1581;51.568;6.998;2023-07-13T15:30:49;3.75;;;1.63;;
3141;SDS011;1581;51.568;6.998;2023-07-13T15:33:17;3.10;;;1.80;;
3141;SDS011;1581;51.568;6.998;2023-07-13T15:35:49;6.95;;;1.90;;
3141;SDS011;1581;51.568;6.998;2023-07-13T15:38:19;4.63;;;2.17;;
3141;SDS011;1581;51.568;6.998;2023-07-13T15:40:50;6.35;;;3.08;;
3141;SDS011;1581;51.568;6.998;2023-07-13T15:43:19;4.00;;;2.15;;
3141;SDS011;1581;51.568;6.998;2023-07-13T15:45:47;4.75;;;2.67;;
3141;SDS011;1581;51.568;6.998;2023-07-13T15:48:16;3.88;;;1.83;;
3141;SDS011;1581;51.568;6.998;2023-07-13T15:50:46;2.38;;;1.70;;
3141;SDS011;1581;51.568;6.998;2023-07-13T15:53:17;2.25;;;1.73;;
3141;SDS011;1581;51.568;6.998;2023-07-13T15:55:49;4.00;;;2.80;;
3141;SDS011;1581;51.568;6.998;2023-07-13T15:58:20;3.90;;;2.20;;
3141;SDS011;1581;51.568;6.998;2023-07-13T16:00:54;5.18;;;1.90;;